Latest Weather Observations for Coondewanna

IDW60801

Issued at 11:02 am WST Monday 6 July 2015 (issued every 30 minutes, with the page automatically refreshed every 10 minutes)

About weather observations | Map of weather stations | Latest weather observations for WA | Other Formats
Station Details ID: 505051 Name: COONDEWANNA Lat: -22.96 Lon: 118.81 Height: 697.63 m
Data from the previous 72 hours. | See also: Recent months for locations in Western Australia
Date/Time
WST
Temp
°C
App
Temp
°C
Dew
Point
Rel
Hum
%
Delta-T
°C
Wind Press
QNH
hPa
Press
MSL
hPa
Rain
since 9 am
mm
Dir
 
Spd
km/h
Gust
km/h
Spd
kts
Gust
kts
06/11:00am 21.0 15.2 0.2 25 9.6 ENE 20 30 11 16 1021.0 1019.6 0.0
06/10:30am 20.4 15.5 -0.3 25 9.4 ENE 15 22 8 12 1021.5 1020.0 0.0
06/10:00am 18.2 16.4 3.3 37 7.2 E 2 7 1 4 1021.8 1020.4 0.0
06/09:30am 14.7 12.0 2.9 45 5.5 E 6 7 3 4 1021.8 1020.4 0.0
06/09:00am 13.0 11.5 3.1 51 4.6 CALM 0 0 0 0 1021.6 1020.1 0.0
06/08:30am 10.1 8.4 1.7 56 3.7 CALM 0 6 0 3 1021.5 1020.0 0.0
06/08:00am 7.9 6.4 2.8 70 2.2 CALM 0 6 0 3 1021.1 1019.7 0.0
06/07:30am 4.0 2.2 1.0 81 1.2 CALM 0 4 0 2 1020.9 1019.5 0.0
06/07:00am 2.3 0.4 0.5 88 0.7 CALM 0 0 0 0 1020.7 1019.3 0.0
06/06:30am 2.0 0.1 0.4 89 0.6 CALM 0 0 0 0 1020.5 1019.1 0.0
06/06:00am 2.8 0.9 0.7 86 0.8 CALM 0 0 0 0 1020.3 1018.8 0.0
06/05:30am 2.6 0.7 0.7 87 0.8 CALM 0 0 0 0 1020.2 1018.7 0.0
06/05:00am 3.3 1.1 1.3 87 0.8 E 2 6 1 3 1020.3 1018.8 0.0
06/04:30am 2.9 1.1 1.0 87 0.8 CALM 0 0 0 0 1020.3 1018.8 0.0
06/04:00am 3.1 1.3 1.0 86 0.8 CALM 0 0 0 0 1020.2 1018.7 0.0
06/03:30am 3.9 1.4 1.3 83 1.1 E 4 7 2 4 1020.2 1018.7 0.0
06/03:00am 4.2 2.1 1.6 83 1.1 E 2 7 1 4 1020.4 1019.0 0.0
06/02:30am 4.4 2.3 1.8 83 1.1 E 2 6 1 3 1020.4 1019.0 0.0
06/02:00am 4.1 2.3 1.5 83 1.1 CALM 0 0 0 0 1020.5 1019.1 0.0
06/01:30am 6.0 3.0 2.1 76 1.7 E 7 9 4 5 1020.7 1019.3 0.0
06/01:00am 5.4 2.6 2.1 79 1.4 E 6 9 3 5 1020.9 1019.5 0.0
06/12:30am 5.9 4.3 2.7 80 1.4 CALM 0 0 0 0 1021.0 1019.6 0.0
06/12:00am 6.0 4.4 2.5 78 1.5 CALM 0 0 0 0 1021.4 1019.9 0.0
 
Date/Time
WST
Temp
°C
App
Temp
°C
Dew
Point
Rel
Hum
%
Delta-T
°C
Wind Press
QNH
hPa
Press
MSL
hPa
Rain
since 9 am
mm
Dir
 
Spd
km/h
Gust
km/h
Spd
kts
Gust
kts
05/11:30pm 6.7 5.1 2.4 74 1.9 CALM 0 0 0 0 1021.4 1019.9 0.0
05/11:00pm 7.8 5.5 2.7 70 2.2 E 4 7 2 4 1021.3 1019.8 0.0
05/10:30pm 8.3 5.7 3.0 69 2.3 E 6 7 3 4 1021.4 1019.9 0.0
05/10:00pm 8.6 5.9 2.8 67 2.6 E 6 7 3 4 1021.6 1020.1 0.0
05/09:30pm 9.1 6.8 2.7 64 2.8 E 4 6 2 3 1021.6 1020.1 0.0
05/09:00pm 11.6 8.9 2.9 55 3.9 E 6 7 3 4 1021.7 1020.3 0.0
05/08:30pm 10.7 9.2 3.0 59 3.5 CALM 0 0 0 0 1021.5 1020.0 0.0
05/08:00pm 11.9 9.1 2.1 51 4.4 E 6 9 3 5 1021.4 1019.9 0.0
05/07:30pm 14.4 11.0 2.0 43 5.7 E 9 13 5 7 1020.9 1019.5 0.0
05/07:00pm 14.5 11.2 2.4 44 5.6 E 9 11 5 6 1020.8 1019.4 0.0
05/06:30pm 16.3 12.5 2.0 38 6.6 E 11 13 6 7 1020.5 1019.1 0.0
05/06:00pm 17.8 14.5 2.2 35 7.3 E 9 11 5 6 1020.4 1019.0 0.0
05/05:30pm 19.9 16.3 0.9 28 8.9 E 9 11 5 6 1020.2 1018.7 0.0
05/05:00pm 21.5 18.4 0.1 24 9.9 ESE 6 11 3 6 1020.3 1018.8 0.0
05/04:30pm 21.8 18.1 -0.2 23 10.2 SSE 9 13 5 7 1020.3 1018.8 0.0
05/04:00pm 22.7 20.3 -0.1 22 10.6 SE 2 9 1 5 1020.2 1018.7 0.0
05/03:30pm 22.5 18.8 -0.3 22 10.6 NE 9 11 5 6 1020.2 1018.7 0.0
05/03:00pm 21.9 18.1 -0.8 22 10.4 SE 9 11 5 6 1020.4 1019.0 0.0
05/02:30pm 22.0 17.4 -0.7 22 10.4 E 13 20 7 11 1020.5 1019.1 0.0
05/02:00pm 22.4 18.8 0.3 23 10.4 NE 9 19 5 10 1020.6 1019.2 0.0
05/01:30pm 22.3 18.6 0.2 23 10.4 NE 9 20 5 11 1020.8 1019.4 0.0
05/01:00pm 22.0 17.1 -0.7 22 10.4 ENE 15 24 8 13 1021.1 1019.7 0.0
05/12:30pm 21.5 17.0 -0.5 23 10.1 E 13 20 7 11 1021.7 1020.3 0.0
05/12:00pm 21.6 16.3 -0.4 23 10.1 ENE 17 20 9 11 1022.2 1020.8 0.0
05/11:30am 21.1 15.9 -0.2 24 9.8 ESE 17 26 9 14 1022.7 1021.3 0.0
05/11:00am 20.8 15.1 -0.5 24 9.7 ESE 19 26 10 14 1023.1 1021.7 0.0
05/10:30am 20.6 15.1 0.4 26 9.4 ENE 19 26 10 14 1023.2 1021.8 0.0
05/10:00am 17.7 15.8 2.8 37 7.1 E 2 7 1 4 1023.4 1022.0 0.0
05/09:30am 14.8 13.4 3.6 47 5.3 CALM 0 0 0 0 1023.5 1022.1 0.0
05/09:29am 14.6 13.2 3.4 47 5.3 CALM 0 0 0 0 1023.5 1022.1 0.0
05/09:12am 13.2 11.7 3.0 50 4.7 CALM 0 2 0 1 1023.7 1022.3 0.0
05/09:00am 12.7 11.0 2.0 48 4.8 CALM 0 4 0 2 1023.6 1022.2 0.0
05/08:30am 9.2 7.6 2.5 63 3.0 CALM 0 0 0 0 1023.4 1022.0 0.0
05/08:00am 7.3 5.5 1.4 66 2.5 CALM 0 0 0 0 1023.2 1021.8 0.0
05/07:30am 4.2 2.3 0.5 77 1.5 CALM 0 0 0 0 1023.1 1021.7 0.0
05/07:00am 1.8 -0.2 0.0 88 0.7 CALM 0 0 0 0 1022.7 1021.3 0.0
05/06:30am 1.4 -0.6 -0.4 88 0.7 CALM 0 0 0 0 1022.6 1021.2 0.0
05/06:00am 3.2 0.0 0.9 85 0.9 E 7 9 4 5 1022.3 1020.9 0.0
05/05:30am 2.4 0.5 0.5 87 0.7 CALM 0 0 0 0 1022.3 1020.9 0.0
05/05:00am 2.8 0.9 0.5 85 0.9 CALM 0 0 0 0 1022.1 1020.7 0.0
05/04:30am 3.2 1.0 0.8 84 1.0 E 2 6 1 3 1021.8 1020.4 0.0
05/04:00am 3.5 1.7 1.2 85 0.9 CALM 0 0 0 0 1021.7 1020.3 0.0
05/03:30am 3.3 1.5 1.0 85 0.9 CALM 0 0 0 0 1021.8 1020.4 0.0
05/03:00am 3.6 1.8 1.0 83 1.0 CALM 0 0 0 0 1021.7 1020.3 0.0
05/02:30am 5.1 2.2 1.2 76 1.6 E 6 7 3 4 1021.9 1020.5 0.0
05/02:00am 4.3 2.5 1.3 81 1.2 CALM 0 0 0 0 1022.0 1020.6 0.0
05/01:30am 5.1 3.4 1.8 79 1.4 CALM 0 0 0 0 1022.2 1020.8 0.0
05/01:00am 5.4 3.7 2.1 79 1.4 CALM 0 0 0 0 1022.3 1020.9 0.0
05/12:30am 5.1 3.4 1.8 79 1.4 CALM 0 0 0 0 1022.2 1020.8 0.0
05/12:00am 6.1 4.0 1.8 74 1.8 E 2 6 1 3 1022.2 1020.8 0.0
 
Date/Time
WST
Temp
°C
App
Temp
°C
Dew
Point
Rel
Hum
%
Delta-T
°C
Wind Press
QNH
hPa
Press
MSL
hPa
Rain
since 9 am
mm
Dir
 
Spd
km/h
Gust
km/h
Spd
kts
Gust
kts
04/11:30pm 6.5 4.9 2.2 74 1.8 CALM 0 0 0 0 1022.4 1021.0 0.0
04/11:00pm 6.7 5.1 2.2 73 1.9 CALM 0 0 0 0 1022.5 1021.1 0.0
04/10:30pm 7.4 5.8 2.5 71 2.1 CALM 0 0 0 0 1022.6 1021.2 0.0
04/10:00pm 8.1 6.6 2.8 69 2.3 CALM 0 0 0 0 1022.7 1021.3 0.0
04/09:30pm 8.6 7.0 2.4 65 2.7 CALM 0 0 0 0 1022.7 1021.3 0.0
04/09:00pm 9.3 7.7 2.2 61 3.1 CALM 0 0 0 0 1022.5 1021.1 0.0
04/08:30pm 10.1 8.5 2.7 60 3.3 CALM 0 0 0 0 1022.5 1021.1 0.0
04/08:00pm 10.7 8.6 2.0 55 3.8 E 2 7 1 4 1022.3 1020.9 0.0
04/07:30pm 13.4 9.6 1.7 45 5.3 E 11 13 6 7 1022.1 1020.7 0.0
04/07:00pm 14.5 10.6 1.4 41 5.9 E 11 13 6 7 1021.9 1020.5 0.0
04/06:30pm 16.1 12.6 1.4 37 6.7 ESE 9 11 5 6 1021.7 1020.3 0.0
04/06:00pm 18.4 14.4 0.5 30 8.2 ESE 11 15 6 8 1021.5 1020.0 0.0
04/05:30pm 19.9 15.9 0.4 27 9.0 ESE 11 13 6 7 1021.3 1019.8 0.0
04/05:18pm 21.0 16.5 -0.3 24 9.8 ESE 13 17 7 9 1021.3 1019.8 0.0
04/05:00pm 21.7 16.7 -0.9 22 10.3 ESE 15 19 8 10 1021.1 1019.7 0.0
04/04:30pm 22.5 17.5 -0.9 21 10.8 ESE 15 20 8 11 1021.1 1019.7 0.0
04/04:00pm 22.8 17.4 -1.3 20 11.0 ESE 17 22 9 12 1021.1 1019.7 0.0
04/03:30pm 23.1 17.3 -1.8 19 11.3 SE 19 30 10 16 1021.3 1019.8 0.0
04/03:00pm 23.0 17.5 -1.8 19 11.2 ESE 17 28 9 15 1021.3 1019.8 0.0
04/02:30pm 22.4 16.4 -3.1 18 11.2 SE 19 28 10 15 1021.3 1019.8 0.0
04/02:00pm 23.0 16.6 -1.8 19 11.2 ESE 22 32 12 17 1021.6 1020.1 0.0
04/01:30pm 22.8 16.4 -2.0 19 11.2 ESE 22 32 12 17 1021.8 1020.4 0.0
04/01:00pm 22.7 17.0 -0.7 21 10.8 ESE 19 30 10 16 1021.9 1020.5 0.0
04/12:30pm 22.5 16.7 -0.3 22 10.6 E 20 30 11 16 1022.3 1020.9 0.0
04/12:00pm 22.2 16.3 -0.5 22 10.5 ESE 20 32 11 17 1022.6 1021.2 0.0
04/11:30am 21.5 15.0 0.1 24 10.0 E 24 33 13 18 1023.2 1021.8 0.0
04/11:00am 21.3 16.2 0.5 25 9.7 E 17 26 9 14 1023.5 1022.1 0.0
04/10:30am 20.5 15.3 -0.2 25 9.5 E 17 22 9 12 1023.8 1022.4 0.0
04/10:07am 18.8 16.5 3.0 35 7.6 SW 4 7 2 4 1024.1 1022.8 0.0
04/10:00am 18.0 15.8 3.5 38 7.0 SW 4 7 2 4 1024.1 1022.8 0.0
04/09:52am 17.5 14.7 3.4 39 6.8 WSW 7 11 4 6 1024.2 1022.9 0.0
04/09:30am 15.4 13.2 5.3 51 5.0 E 6 7 3 4 1024.2 1022.9 0.0
04/09:13am 13.7 11.4 4.8 55 4.3 E 6 7 3 4 1024.4 1023.0 0.0
04/09:00am 12.4 11.1 4.1 57 3.9 CALM 0 0 0 0 1024.2 1022.9 0.0
04/08:48am 11.2 10.0 4.4 63 3.2 CALM 0 0 0 0 1024.1 1022.8 0.0
04/08:30am 9.7 8.3 3.7 66 2.7 CALM 0 0 0 0 1023.9 1022.5 0.0
04/08:00am 7.1 5.6 2.8 74 1.9 CALM 0 0 0 0 1023.8 1022.4 0.0
04/07:30am 4.3 2.6 1.7 83 1.1 CALM 0 0 0 0 1023.6 1022.2 0.0
04/07:00am 2.7 0.9 0.9 88 0.7 CALM 0 0 0 0 1023.3 1021.9 0.0
04/06:30am 2.7 0.9 1.1 89 0.6 CALM 0 0 0 0 1023.1 1021.7 0.0
04/06:00am 3.2 1.4 1.4 88 0.7 CALM 0 0 0 0 1022.9 1021.5 0.0
04/05:30am 3.4 1.6 1.4 87 0.8 CALM 0 0 0 0 1022.6 1021.2 0.0
04/05:00am 3.6 1.9 2.0 89 0.7 CALM 0 0 0 0 1022.5 1021.1 0.0
04/04:30am 3.8 2.1 1.8 87 0.8 CALM 0 0 0 0 1022.5 1021.1 0.0
04/04:00am 4.1 2.4 2.0 86 0.9 CALM 0 0 0 0 1022.4 1021.0 0.0
04/03:30am 4.5 2.9 2.2 85 1.0 CALM 0 0 0 0 1022.5 1021.1 0.0
04/03:00am 4.7 3.1 2.2 84 1.0 CALM 0 0 0 0 1022.7 1021.3 0.0
04/02:30am 4.9 3.3 2.6 85 1.0 CALM 0 0 0 0 1022.9 1021.5 0.0
04/02:00am 5.2 3.6 2.7 84 1.1 CALM 0 0 0 0 1023.1 1021.7 0.0
04/01:30am 5.7 4.2 2.9 82 1.2 CALM 0 0 0 0 1023.2 1021.8 0.0
04/01:00am 5.8 4.3 3.0 82 1.2 CALM 0 0 0 0 1023.3 1021.9 0.0
04/12:30am 6.8 5.3 3.1 77 1.6 CALM 0 0 0 0 1023.3 1021.9 0.0
04/12:00am 7.8 5.6 3.3 73 2.0 E 4 6 2 3 1023.4 1022.0 0.0
 
Date/Time
WST
Temp
°C
App
Temp
°C
Dew
Point
Rel
Hum
%
Delta-T
°C
Wind Press
QNH
hPa
Press
MSL
hPa
Rain
since 9 am
mm
Dir
 
Spd
km/h
Gust
km/h
Spd
kts
Gust
kts
03/11:30pm 8.1 5.4 3.6 73 2.0 E 7 7 4 4 1023.5 1022.1 0.0
03/11:00pm 7.7 6.3 3.7 76 1.8 CALM 0 0 0 0 1023.6 1022.2 0.0
03/10:30pm 8.2 6.9 3.9 74 1.9 CALM 0 0 0 0 1023.7 1022.3 0.0
03/10:00pm 9.2 7.9 4.2 71 2.3 CALM 0 0 0 0 1023.7 1022.3 0.0
03/09:30pm 9.4 8.1 4.0 69 2.5 CALM 0 0 0 0 1023.6 1022.2 0.0
03/09:00pm 10.8 8.4 4.3 64 3.0 E 6 7 3 4 1023.6 1022.2 0.0
03/08:30pm 11.2 9.9 4.0 61 3.3 CALM 0 0 0 0 1023.7 1022.3 0.0
03/08:00pm 11.7 10.0 4.0 59 3.6 E 2 6 1 3 1023.5 1022.1 0.0
03/07:30pm 12.9 11.2 4.1 55 4.2 E 2 7 1 4 1023.3 1021.9 0.0
03/07:00pm 14.8 11.4 3.9 48 5.2 E 11 11 6 6 1023.2 1021.8 0.0
03/06:30pm 16.4 13.7 3.8 43 6.1 ESE 7 11 4 6 1022.7 1021.3 0.0
03/06:00pm 18.0 14.4 3.1 37 7.1 ESE 11 13 6 7 1022.4 1021.0 0.0
03/05:30pm 19.8 16.1 2.2 31 8.4 SE 11 13 6 7 1022.0 1020.6 0.0
03/05:00pm 21.6 18.3 2.3 28 9.3 SE 9 13 5 7 1022.0 1020.6 0.0
03/04:30pm 22.0 18.2 1.6 26 9.8 SSE 11 19 6 10 1021.9 1020.5 0.0
03/04:00pm 22.1 17.8 1.2 25 9.9 SSE 13 24 7 13 1021.8 1020.4 0.0
03/03:30pm 22.1 17.5 1.7 26 9.8 ESE 15 24 8 13 1021.7 1020.3 0.0
03/03:00pm 22.7 18.6 2.2 26 10.0 SSE 13 20 7 11 1021.8 1020.4 0.0
03/02:30pm 22.3 17.4 1.9 26 9.9 S 17 20 9 11 1021.8 1020.4 0.0
03/02:00pm 22.2 17.3 2.3 27 9.7 ESE 17 26 9 14 1021.9 1020.5 0.0
03/01:30pm 22.3 17.8 2.4 27 9.7 ESE 15 26 8 14 1022.2 1020.8 0.0
03/01:00pm 21.8 16.5 2.0 27 9.5 ESE 19 30 10 16 1022.4 1021.0 0.0
03/12:30pm 21.5 18.2 2.7 29 9.2 S 9 17 5 9 1022.9 1021.5 0.0
03/12:00pm 20.9 16.8 2.2 29 9.0 SE 13 20 7 11 1023.5 1022.1 0.0
03/11:30am 21.3 17.0 3.0 30 9.0 SE 15 26 8 14 1024.1 1022.8 0.0

Other Formats:

Comma delimited format used in spreadsheet applications
http://www.bom.gov.au/fwo/IDW60801/IDW60801.99312.axf

JavaScript Object Notation format (JSON) in row-major order
http://www.bom.gov.au/fwo/IDW60801/IDW60801.99312.json